createdAt,value
2019-03-30T00:01:11.175Z,9.47
2019-03-30T00:03:52.262Z,9.60
2019-03-30T00:06:33.547Z,10.10
2019-03-30T00:09:14.266Z,10.63
2019-03-30T00:11:57.697Z,10.03
2019-03-30T00:14:37.615Z,9.87
2019-03-30T00:17:18.834Z,10.70
2019-03-30T00:19:59.701Z,11.43
2019-03-30T00:25:22.513Z,10.97
2019-03-30T00:28:01.971Z,10.63
2019-03-30T00:30:50.391Z,10.47
2019-03-30T00:33:38.725Z,10.60
2019-03-30T00:36:27.135Z,10.40
2019-03-30T00:39:15.463Z,9.70
2019-03-30T00:42:03.963Z,10.30
2019-03-30T00:44:52.257Z,10.60
2019-03-30T00:47:39.947Z,11.20
2019-03-30T00:50:09.395Z,11.70
2019-03-30T00:52:57.734Z,11.00
2019-03-30T00:55:46.220Z,12.50
2019-03-30T00:58:34.584Z,10.50
2019-03-30T01:01:22.971Z,11.40
2019-03-30T01:04:11.367Z,10.77
2019-03-30T01:06:59.805Z,10.93
2019-03-30T01:09:48.140Z,10.93
2019-03-30T01:12:36.621Z,11.50
2019-03-30T01:15:25.076Z,11.97
2019-03-30T01:18:13.514Z,11.47
2019-03-30T01:20:52.918Z,13.10
2019-03-30T01:23:41.257Z,11.60
2019-03-30T01:26:29.614Z,12.23
2019-03-30T01:29:17.949Z,11.23
2019-03-30T01:32:06.520Z,11.77
2019-03-30T01:34:54.852Z,12.07
2019-03-30T01:37:24.205Z,11.10
2019-03-30T01:40:12.618Z,11.57
2019-03-30T01:43:00.911Z,12.20
2019-03-30T01:45:49.243Z,12.47
2019-03-30T01:48:37.550Z,12.07
2019-03-30T01:51:25.899Z,13.43
2019-03-30T01:54:14.227Z,12.33
2019-03-30T01:57:02.612Z,13.20
2019-03-30T01:59:50.949Z,13.30
2019-03-30T02:02:39.397Z,12.17
2019-03-30T02:05:20.323Z,12.27
2019-03-30T02:08:01.688Z,11.87
2019-03-30T02:10:42.321Z,12.67
2019-03-30T02:13:22.955Z,13.10
2019-03-30T02:16:04.299Z,12.20
2019-03-30T02:18:44.881Z,12.20
2019-03-30T02:21:25.611Z,12.73
2019-03-30T02:24:06.401Z,11.17
2019-03-30T02:26:47.040Z,11.50
2019-03-30T02:29:27.846Z,11.60
2019-03-30T02:32:09.026Z,12.40
2019-03-30T02:34:49.555Z,12.10
2019-03-30T02:37:30.023Z,11.73
2019-03-30T02:40:10.664Z,12.43
2019-03-30T02:42:51.450Z,12.30
2019-03-30T02:48:15.024Z,12.43
2019-03-30T02:50:55.825Z,12.90
2019-03-30T02:53:36.586Z,13.47
2019-03-30T02:56:17.707Z,12.20
2019-03-30T02:58:58.276Z,12.30
2019-03-30T03:01:38.973Z,11.73
2019-03-30T03:04:19.962Z,12.83
2019-03-30T03:07:00.787Z,13.07
2019-03-30T03:09:41.910Z,13.67
2019-03-30T03:12:22.652Z,13.33
2019-03-30T03:15:03.120Z,14.03
2019-03-30T03:17:43.611Z,15.53
2019-03-30T03:20:24.903Z,12.93
2019-03-30T03:23:05.798Z,13.57
2019-03-30T03:25:46.821Z,13.60
2019-03-30T03:28:27.586Z,14.20
2019-03-30T03:31:08.694Z,14.30
2019-03-30T03:33:49.772Z,14.90
2019-03-30T03:36:30.461Z,13.70
2019-03-30T03:39:11.491Z,13.80
2019-03-30T03:41:52.096Z,14.20
2019-03-30T03:44:32.996Z,14.33
2019-03-30T03:47:13.703Z,13.37
2019-03-30T03:49:54.679Z,13.93
2019-03-30T03:52:35.237Z,14.87
2019-03-30T03:55:16.015Z,15.10
2019-03-30T03:57:57.513Z,14.93
2019-03-30T04:00:38.829Z,14.60
2019-03-30T04:03:19.670Z,14.20
2019-03-30T04:06:00.156Z,14.30
2019-03-30T04:08:41.039Z,16.60
2019-03-30T04:11:21.860Z,14.43
2019-03-30T04:14:02.873Z,14.83
2019-03-30T04:16:44.199Z,15.00
2019-03-30T04:19:24.967Z,15.20
2019-03-30T04:22:04.537Z,16.03
2019-03-30T04:24:53.168Z,15.27
2019-03-30T04:27:42.516Z,15.73
2019-03-30T04:30:23.668Z,15.37
2019-03-30T04:33:04.103Z,16.33
2019-03-30T04:35:44.820Z,16.60
2019-03-30T04:38:25.961Z,16.50
2019-03-30T04:41:06.790Z,14.30
2019-03-30T04:43:47.468Z,15.07
2019-03-30T04:46:28.101Z,15.43
2019-03-30T04:49:08.900Z,15.10
2019-03-30T04:51:57.529Z,15.40
2019-03-30T04:54:32.454Z,15.60
2019-03-30T04:57:13.264Z,16.80
2019-03-30T04:59:54.074Z,15.80
2019-03-30T05:02:34.928Z,16.50
2019-03-30T05:07:58.168Z,16.90
2019-03-30T05:10:39.428Z,16.10
2019-03-30T05:13:20.466Z,17.10
2019-03-30T05:16:01.641Z,17.33
2019-03-30T05:18:42.448Z,17.27
2019-03-30T05:21:21.895Z,18.60
2019-03-30T05:24:02.729Z,16.60
2019-03-30T05:26:43.462Z,17.70
2019-03-30T05:29:24.054Z,17.50
2019-03-30T05:32:04.989Z,17.00
2019-03-30T05:34:34.474Z,16.40
2019-03-30T05:37:03.984Z,17.10
2019-03-30T05:39:52.334Z,16.43
2019-03-30T05:42:40.691Z,18.00
2019-03-30T05:45:29.026Z,16.30
2019-03-30T05:48:17.375Z,17.00
2019-03-30T05:51:05.721Z,17.10
2019-03-30T05:53:54.018Z,17.63
2019-03-30T05:56:42.368Z,15.87
2019-03-30T05:59:30.666Z,17.90
2019-03-30T06:02:19.013Z,15.37
2019-03-30T06:05:07.430Z,17.10
2019-03-30T06:07:55.755Z,15.20
2019-03-30T06:10:44.142Z,16.00
2019-03-30T06:13:32.554Z,15.37
2019-03-30T06:16:20.879Z,17.43
2019-03-30T06:19:09.323Z,17.00
2019-03-30T06:24:59.096Z,17.27
2019-03-30T06:27:40.332Z,15.87
2019-03-30T06:30:21.002Z,16.20
2019-03-30T06:33:02.401Z,16.63
2019-03-30T06:35:41.966Z,16.40
2019-03-30T06:38:30.329Z,16.50
2019-03-30T06:41:18.958Z,17.17
2019-03-30T06:44:07.311Z,16.47
2019-03-30T06:46:55.706Z,18.47
2019-03-30T06:49:44.249Z,16.80
2019-03-30T06:52:32.591Z,16.63
2019-03-30T06:55:20.976Z,17.20
2019-03-30T06:58:09.599Z,17.17
2019-03-30T07:00:57.964Z,17.43
2019-03-30T07:03:46.460Z,16.70
2019-03-30T07:06:27.537Z,17.47
2019-03-30T07:09:08.408Z,17.00
2019-03-30T07:11:49.364Z,16.63
2019-03-30T07:14:30.121Z,17.40
2019-03-30T07:17:11.045Z,15.87
2019-03-30T07:19:52.444Z,17.87
2019-03-30T07:22:33.083Z,16.97
2019-03-30T07:25:13.767Z,16.13
2019-03-30T07:27:54.651Z,18.50
2019-03-30T07:30:35.506Z,16.90
2019-03-30T07:33:16.576Z,19.50
2019-03-30T07:35:57.885Z,17.50
2019-03-30T07:38:38.826Z,16.77
2019-03-30T07:41:19.964Z,16.80
2019-03-30T07:44:00.895Z,17.47
2019-03-30T07:46:41.712Z,17.20
2019-03-30T07:49:22.437Z,17.53
2019-03-30T07:52:03.412Z,18.60
2019-03-30T07:54:44.093Z,19.13
2019-03-30T07:57:25.015Z,18.33
2019-03-30T08:00:05.744Z,18.90
2019-03-30T08:02:46.454Z,19.63
2019-03-30T08:05:26.914Z,19.40
2019-03-30T08:08:07.343Z,18.57
2019-03-30T08:10:47.759Z,19.60
2019-03-30T08:13:28.483Z,19.20
2019-03-30T08:16:09.097Z,19.50
2019-03-30T08:18:50.247Z,20.00
2019-03-30T08:21:29.829Z,19.70
2019-03-30T08:24:18.253Z,20.23
2019-03-30T08:27:06.573Z,21.90
2019-03-30T08:29:54.911Z,21.27
2019-03-30T08:32:43.268Z,20.53
2019-03-30T08:35:31.582Z,20.00
2019-03-30T08:38:20.027Z,19.70
2019-03-30T08:41:08.377Z,19.90
2019-03-30T08:43:56.809Z,19.73
2019-03-30T08:46:45.149Z,18.73
2019-03-30T08:49:33.678Z,17.63
2019-03-30T08:52:21.974Z,18.43
2019-03-30T08:58:18.262Z,18.73
2019-03-30T09:01:06.670Z,23.30
2019-03-30T09:03:55.049Z,20.37
2019-03-30T09:06:43.458Z,19.53
2019-03-30T09:09:22.959Z,21.07
2019-03-30T09:12:11.404Z,21.10
2019-03-30T09:14:59.749Z,19.43
2019-03-30T09:17:47.443Z,18.80
2019-03-30T09:20:35.835Z,18.50
2019-03-30T09:23:24.244Z,20.43
2019-03-30T09:26:13.116Z,21.07
2019-03-30T09:29:02.886Z,19.33
2019-03-30T09:31:51.297Z,17.70
2019-03-30T09:34:32.486Z,18.23
2019-03-30T09:37:13.202Z,19.23
2019-03-30T09:39:53.774Z,17.10
2019-03-30T09:42:34.292Z,17.13
2019-03-30T09:45:15.622Z,16.73
2019-03-30T09:47:56.233Z,15.43
2019-03-30T09:50:37.597Z,15.60
2019-03-30T09:53:07.420Z,15.30
2019-03-30T09:55:55.804Z,15.10
2019-03-30T09:58:44.148Z,14.90
2019-03-30T10:01:32.488Z,15.20
2019-03-30T10:04:20.944Z,16.90
2019-03-30T10:06:50.366Z,15.00
2019-03-30T10:09:38.802Z,14.13
2019-03-30T10:12:27.144Z,13.90
2019-03-30T10:15:15.661Z,16.13
2019-03-30T10:18:04.355Z,14.83
2019-03-30T10:20:52.810Z,14.03
2019-03-30T10:23:22.272Z,13.37
2019-03-30T10:25:51.674Z,14.63
2019-03-30T10:28:21.206Z,15.37
2019-03-30T10:30:50.788Z,14.53
2019-03-30T10:36:31.579Z,14.20
2019-03-30T10:39:19.958Z,13.60
2019-03-30T10:41:49.496Z,13.80
2019-03-30T10:44:37.806Z,12.90
2019-03-30T10:47:26.323Z,13.10
2019-03-30T10:50:14.751Z,13.00
2019-03-30T10:53:03.244Z,12.60
2019-03-30T10:58:45.622Z,13.53
2019-03-30T11:01:33.950Z,15.77
2019-03-30T11:04:22.338Z,13.53
2019-03-30T11:07:10.706Z,13.93
2019-03-30T11:09:59.017Z,12.10
2019-03-30T11:12:47.378Z,13.00
2019-03-30T11:15:35.690Z,13.80
2019-03-30T11:18:24.175Z,13.50
2019-03-30T11:21:12.568Z,13.50
2019-03-30T11:24:00.208Z,13.20
2019-03-30T11:26:48.571Z,12.57
2019-03-30T11:29:29.338Z,12.90
2019-03-30T11:32:10.053Z,12.80
2019-03-30T11:34:50.736Z,11.93
2019-03-30T11:37:31.998Z,10.80
2019-03-30T11:40:12.828Z,10.70
2019-03-30T11:42:53.545Z,10.47
2019-03-30T11:45:34.228Z,11.37
2019-03-30T11:48:15.139Z,11.67
2019-03-30T11:50:56.348Z,11.60
2019-03-30T11:53:37.307Z,10.33
2019-03-30T11:56:17.786Z,10.43
2019-03-30T11:58:58.290Z,10.57
2019-03-30T12:01:38.950Z,10.10
2019-03-30T12:04:19.799Z,10.10
2019-03-30T12:07:00.574Z,10.23
2019-03-30T12:09:41.390Z,9.67
2019-03-30T12:15:04.244Z,10.20
2019-03-30T12:17:45.440Z,8.80
2019-03-30T12:20:26.034Z,8.17
2019-03-30T12:23:06.470Z,8.10
2019-03-30T12:25:47.729Z,7.80
2019-03-30T12:28:28.192Z,7.13
2019-03-30T12:31:09.046Z,7.77
2019-03-30T12:39:48.041Z,7.97
2019-03-30T12:42:28.389Z,6.63
2019-03-30T12:45:09.396Z,7.57
2019-03-30T12:47:49.935Z,7.83
2019-03-30T12:50:31.302Z,7.57
2019-03-30T12:53:11.923Z,6.53
2019-03-30T12:55:52.643Z,7.00
2019-03-30T12:58:33.356Z,6.30
2019-03-30T13:01:15.686Z,6.47
2019-03-30T13:03:55.307Z,6.47
2019-03-30T13:06:43.649Z,6.60
2019-03-30T13:09:51.745Z,6.07
2019-03-30T13:12:40.019Z,5.90
2019-03-30T13:15:28.427Z,6.40
2019-03-30T13:18:16.815Z,6.33
2019-03-30T13:21:05.343Z,7.17
2019-03-30T13:26:47.232Z,6.60
2019-03-30T13:32:25.734Z,7.00
2019-03-30T13:35:14.132Z,6.20
2019-03-30T13:37:54.847Z,6.00
2019-03-30T13:40:35.987Z,8.10
2019-03-30T13:43:16.960Z,6.90
2019-03-30T13:45:57.651Z,7.90
2019-03-30T13:48:38.704Z,7.80
2019-03-30T13:51:19.252Z,8.10
2019-03-30T13:53:59.759Z,9.30
2019-03-30T13:56:40.380Z,9.63
2019-03-30T13:59:20.889Z,9.43
2019-03-30T14:02:01.893Z,8.63
2019-03-30T14:04:43.186Z,10.10
2019-03-30T14:07:24.690Z,9.70
2019-03-30T14:10:08.534Z,9.70
2019-03-30T14:12:49.484Z,11.33
2019-03-30T14:15:30.272Z,10.73
2019-03-30T14:18:10.870Z,10.03
2019-03-30T14:20:51.920Z,11.80
2019-03-30T14:23:32.512Z,10.47
2019-03-30T14:26:12.954Z,9.80
2019-03-30T14:28:54.403Z,11.80
2019-03-30T14:31:35.830Z,12.00
2019-03-30T14:34:16.330Z,11.33
2019-03-30T14:36:57.082Z,12.30
2019-03-30T14:39:40.392Z,12.07
2019-03-30T14:42:21.324Z,11.70
2019-03-30T14:45:02.214Z,11.90
2019-03-30T14:47:42.916Z,12.73
2019-03-30T14:50:23.758Z,13.60
2019-03-30T14:53:04.309Z,12.63
2019-03-30T14:55:45.201Z,15.20
2019-03-30T14:58:25.926Z,13.20
2019-03-30T15:01:06.702Z,13.73
2019-03-30T15:03:46.096Z,13.10
2019-03-30T15:06:34.540Z,12.20
2019-03-30T15:09:05.557Z,13.27
2019-03-30T15:11:37.917Z,12.53
2019-03-30T15:14:06.412Z,12.90
2019-03-30T15:16:36.020Z,13.63
2019-03-30T15:19:24.552Z,12.53
2019-03-30T15:22:12.996Z,11.43
2019-03-30T15:25:01.383Z,11.50
2019-03-30T15:27:49.981Z,11.17
2019-03-30T15:30:30.572Z,10.80
2019-03-30T15:33:11.192Z,10.90
2019-03-30T15:35:52.512Z,10.30
2019-03-30T15:38:33.629Z,10.70
2019-03-30T15:43:58.195Z,10.17
2019-03-30T15:46:38.889Z,10.57
2019-03-30T15:49:19.800Z,10.30
2019-03-30T15:52:13.284Z,11.40
2019-03-30T15:54:43.411Z,11.70
2019-03-30T15:57:25.475Z,10.53
2019-03-30T16:00:07.062Z,10.77
2019-03-30T16:02:48.184Z,10.90
2019-03-30T16:08:11.098Z,11.13
2019-03-30T16:13:33.681Z,11.00
2019-03-30T16:16:14.822Z,10.53
2019-03-30T16:18:55.728Z,10.50
2019-03-30T16:21:36.413Z,11.00
2019-03-30T16:24:17.109Z,11.00
2019-03-30T16:29:41.322Z,11.00
2019-03-30T16:32:22.488Z,10.47
2019-03-30T16:35:03.009Z,11.00
2019-03-30T16:37:44.644Z,11.00
2019-03-30T16:40:25.464Z,11.53
2019-03-30T16:43:08.563Z,10.90
2019-03-30T16:45:49.513Z,9.70
2019-03-30T16:48:30.091Z,10.57
2019-03-30T16:51:10.880Z,11.40
2019-03-30T16:53:52.168Z,9.63
2019-03-30T16:56:33.614Z,9.27
2019-03-30T16:59:14.245Z,9.30
2019-03-30T17:01:55.161Z,9.87
2019-03-30T17:04:35.725Z,9.50
2019-03-30T17:07:16.276Z,10.43
2019-03-30T17:09:57.707Z,10.10
2019-03-30T17:12:37.240Z,9.23
2019-03-30T17:15:25.696Z,10.97
2019-03-30T17:18:14.101Z,10.30
2019-03-30T17:21:02.451Z,9.50
2019-03-30T17:23:50.855Z,10.40
2019-03-30T17:26:39.289Z,11.30
2019-03-30T17:29:27.659Z,9.17
2019-03-30T17:32:16.287Z,10.33
2019-03-30T17:34:57.167Z,10.93
2019-03-30T17:37:37.816Z,11.10
2019-03-30T17:40:18.722Z,12.60
2019-03-30T17:42:59.545Z,11.53
2019-03-30T17:45:40.486Z,11.63
2019-03-30T17:48:21.775Z,11.73
2019-03-30T17:51:02.276Z,10.97
2019-03-30T17:53:43.099Z,12.20
2019-03-30T17:56:23.636Z,12.90
2019-03-30T17:59:04.381Z,13.70
2019-03-30T18:01:43.837Z,12.20
2019-03-30T18:04:32.255Z,13.10
2019-03-30T18:07:20.730Z,12.07
2019-03-30T18:10:09.388Z,13.03
2019-03-30T18:12:50.605Z,12.80
2019-03-30T18:15:34.491Z,12.17
2019-03-30T18:18:13.735Z,12.50
2019-03-30T18:20:55.453Z,13.70
2019-03-30T18:23:36.710Z,12.33
2019-03-30T18:26:17.214Z,11.63
2019-03-30T18:28:46.707Z,11.17
2019-03-30T18:31:16.685Z,12.80
2019-03-30T18:33:46.691Z,14.00
2019-03-30T18:36:18.504Z,13.70
2019-03-30T18:38:49.360Z,13.47
2019-03-30T18:41:19.162Z,14.47
2019-03-30T18:43:49.477Z,15.13
2019-03-30T18:46:18.936Z,15.60
2019-03-30T18:48:48.522Z,15.07
2019-03-30T18:51:17.904Z,14.97
2019-03-30T18:53:47.836Z,16.03
2019-03-30T18:56:17.284Z,16.37
2019-03-30T18:58:46.819Z,17.03
2019-03-30T19:01:16.301Z,17.43
2019-03-30T19:03:45.725Z,17.30
2019-03-30T19:06:15.376Z,16.33
2019-03-30T19:08:44.768Z,14.53
2019-03-30T19:11:14.269Z,15.23
2019-03-30T19:13:43.721Z,16.53
2019-03-30T19:16:12.601Z,15.13
2019-03-30T19:18:42.090Z,15.13
2019-03-30T19:21:11.694Z,14.80
2019-03-30T19:23:41.154Z,15.23
2019-03-30T19:26:10.581Z,14.60
2019-03-30T19:28:39.986Z,14.10
2019-03-30T19:31:09.490Z,14.20
2019-03-30T19:33:38.874Z,14.87
2019-03-30T19:36:09.997Z,15.10
2019-03-30T19:38:39.641Z,15.90
2019-03-30T19:41:09.148Z,14.80
2019-03-30T19:43:38.490Z,14.13
2019-03-30T19:46:07.949Z,12.90
2019-03-30T19:48:37.628Z,14.83
2019-03-30T19:51:07.017Z,14.70
2019-03-30T19:53:36.469Z,15.77
2019-03-30T19:56:06.066Z,15.30
2019-03-30T19:58:35.754Z,15.47
2019-03-30T20:01:05.422Z,17.17
2019-03-30T20:03:34.997Z,16.30
2019-03-30T20:06:04.902Z,15.77
2019-03-30T20:08:34.412Z,16.43
2019-03-30T20:11:04.314Z,18.70
2019-03-30T20:13:34.022Z,17.90
2019-03-30T20:16:03.635Z,16.83
2019-03-30T20:18:33.106Z,16.50
2019-03-30T20:21:02.584Z,16.77
2019-03-30T20:23:32.030Z,19.83
2019-03-30T20:26:01.442Z,18.07
2019-03-30T20:28:30.852Z,16.20
2019-03-30T20:31:00.316Z,16.60
2019-03-30T20:33:29.728Z,17.70
2019-03-30T20:35:59.208Z,17.70
2019-03-30T20:38:28.631Z,17.13
2019-03-30T20:40:58.060Z,17.73
2019-03-30T20:43:27.430Z,17.07
2019-03-30T20:45:56.892Z,16.97
2019-03-30T20:48:26.342Z,17.80
2019-03-30T20:50:55.928Z,17.90
2019-03-30T20:53:25.464Z,17.37
2019-03-30T20:55:54.904Z,16.67
2019-03-30T20:58:24.389Z,16.17
2019-03-30T21:00:53.864Z,18.20
2019-03-30T21:03:23.482Z,17.57
2019-03-30T21:05:53.083Z,19.03
2019-03-30T21:08:22.784Z,17.07
2019-03-30T21:10:52.425Z,17.17
2019-03-30T21:13:21.884Z,17.50
2019-03-30T21:15:52.009Z,16.70
2019-03-30T21:18:21.658Z,17.23
2019-03-30T21:20:51.257Z,17.93
2019-03-30T21:23:20.725Z,17.57
2019-03-30T21:25:50.243Z,17.23
2019-03-30T21:28:19.728Z,18.97
2019-03-30T21:30:49.199Z,17.93
2019-03-30T21:33:18.683Z,18.30
2019-03-30T21:35:48.143Z,18.53
2019-03-30T21:38:17.579Z,19.00
2019-03-30T21:40:47.125Z,17.17
2019-03-30T21:43:19.568Z,18.40
2019-03-30T21:45:47.771Z,19.03
2019-03-30T21:48:17.414Z,19.17
2019-03-30T21:50:46.820Z,18.60
2019-03-30T21:53:16.214Z,17.57
2019-03-30T21:55:45.663Z,16.83
2019-03-30T21:58:15.121Z,18.40
2019-03-30T22:00:44.600Z,17.33
2019-03-30T22:03:13.269Z,18.93
2019-03-30T22:05:42.870Z,17.50
2019-03-30T22:08:12.295Z,18.60
2019-03-30T22:10:41.773Z,16.87
2019-03-30T22:13:11.358Z,16.30
2019-03-30T22:15:40.919Z,17.37
2019-03-30T22:18:10.520Z,18.53
2019-03-30T22:20:39.995Z,18.40
2019-03-30T22:23:09.486Z,18.73
2019-03-30T22:25:38.989Z,17.30
2019-03-30T22:28:08.485Z,17.43
2019-03-30T22:30:37.922Z,19.70
2019-03-30T22:33:07.323Z,19.03
2019-03-30T22:35:36.749Z,18.40
2019-03-30T22:38:06.169Z,17.17
2019-03-30T22:40:35.783Z,17.53
2019-03-30T22:43:05.623Z,18.70
2019-03-30T22:45:35.101Z,19.47
2019-03-30T22:48:04.650Z,18.73
2019-03-30T22:50:34.080Z,19.10
2019-03-30T22:53:03.641Z,18.30
2019-03-30T22:55:33.021Z,19.00
2019-03-30T22:58:02.447Z,20.03
2019-03-30T23:00:47.189Z,18.50
2019-03-30T23:03:16.693Z,18.93
2019-03-30T23:05:46.224Z,18.73
2019-03-30T23:08:15.761Z,19.10
2019-03-30T23:10:45.270Z,18.60
2019-03-30T23:13:14.733Z,20.70
2019-03-30T23:15:44.113Z,20.70
2019-03-30T23:18:13.610Z,20.80
2019-03-30T23:20:42.997Z,19.83
2019-03-30T23:23:12.425Z,20.60
2019-03-30T23:25:41.825Z,20.27
2019-03-30T23:28:11.256Z,19.87
2019-03-30T23:30:53.711Z,20.53
2019-03-30T23:33:11.911Z,21.40
2019-03-30T23:35:56.450Z,21.17
2019-03-30T23:38:25.955Z,21.37
2019-03-30T23:40:55.311Z,20.60
2019-03-30T23:43:24.745Z,19.83
2019-03-30T23:45:54.219Z,20.67
2019-03-30T23:48:23.697Z,20.23
2019-03-30T23:50:53.303Z,20.47
2019-03-30T23:53:22.779Z,20.43
2019-03-30T23:55:52.183Z,21.33
2019-03-30T23:58:21.561Z,20.40
